createdAt,value
2019-01-21T00:00:06.256Z,1019.35
2019-01-21T00:01:06.235Z,1019.30
2019-01-21T00:02:06.225Z,1019.35
2019-01-21T00:03:06.214Z,1019.34
2019-01-21T00:04:06.203Z,1019.32
2019-01-21T00:05:06.235Z,1019.32
2019-01-21T00:06:06.186Z,1019.32
2019-01-21T00:07:06.168Z,1019.26
2019-01-21T00:08:06.174Z,1019.36
2019-01-21T00:09:06.147Z,1019.30
2019-01-21T00:10:06.139Z,1019.30
2019-01-21T00:11:06.137Z,1019.31
2019-01-21T00:12:06.126Z,1019.26
2019-01-21T00:13:06.108Z,1019.30
2019-01-21T00:14:06.094Z,1019.31
2019-01-21T00:15:06.100Z,1019.29
2019-01-21T00:16:06.185Z,1019.25
2019-01-21T00:17:06.071Z,1019.33
2019-01-21T00:18:06.059Z,1019.27
2019-01-21T00:19:06.043Z,1019.29
2019-01-21T00:20:06.028Z,1019.30
2019-01-21T00:21:06.036Z,1019.28
2019-01-21T00:22:06.007Z,1019.24
2019-01-21T00:23:05.995Z,1019.25
2019-01-21T00:24:06.000Z,1019.22
2019-01-21T00:25:05.974Z,1019.27
2019-01-21T00:26:05.980Z,1019.26
2019-01-21T00:27:05.957Z,1019.22
2019-01-21T00:28:05.945Z,1019.24
2019-01-21T00:29:05.941Z,1019.25
2019-01-21T00:30:05.926Z,1019.22
2019-01-21T00:31:05.939Z,1019.22
2019-01-21T00:32:05.901Z,1019.18
2019-01-21T00:33:05.893Z,1019.24
2019-01-21T00:34:05.888Z,1019.19
2019-01-21T00:35:05.869Z,1019.23
2019-01-21T00:36:05.856Z,1019.25
2019-01-21T00:37:05.883Z,1019.20
2019-01-21T00:38:05.840Z,1019.22
2019-01-21T00:39:05.829Z,1019.17
2019-01-21T00:40:05.820Z,1019.20
2019-01-21T00:41:05.806Z,1019.24
2019-01-21T00:42:05.809Z,1019.25
2019-01-21T00:43:05.797Z,1019.20
2019-01-21T00:44:05.771Z,1019.22
2019-01-21T00:45:05.763Z,1019.21
2019-01-21T00:46:05.754Z,1019.26
2019-01-21T00:47:05.760Z,1019.23
2019-01-21T00:48:05.754Z,1019.22
2019-01-21T00:49:05.721Z,1019.21
2019-01-21T00:50:05.706Z,1019.23
2019-01-21T00:51:05.699Z,1019.25
2019-01-21T00:52:05.711Z,1019.20
2019-01-21T00:53:05.675Z,1019.22
2019-01-21T00:54:05.664Z,1019.18
2019-01-21T00:55:05.656Z,1019.18
2019-01-21T00:56:05.646Z,1019.18
2019-01-21T00:57:05.655Z,1019.22
2019-01-21T00:58:05.625Z,1019.22
2019-01-21T00:59:05.610Z,1019.27
2019-01-21T01:00:05.600Z,1019.22
2019-01-21T01:01:05.593Z,1019.21
2019-01-21T01:02:05.606Z,1019.22
2019-01-21T01:03:05.570Z,1019.18
2019-01-21T01:04:05.557Z,1019.20
2019-01-21T01:05:05.541Z,1019.17
2019-01-21T01:06:05.537Z,1019.22
2019-01-21T01:07:05.526Z,1019.21
2019-01-21T01:08:05.537Z,1019.25
2019-01-21T01:09:05.503Z,1019.24
2019-01-21T01:10:05.497Z,1019.28
2019-01-21T01:11:05.482Z,1019.26
2019-01-21T01:12:05.478Z,1019.24
2019-01-21T01:13:05.483Z,1019.25
2019-01-21T01:14:05.457Z,1019.23
2019-01-21T01:15:05.443Z,1019.26
2019-01-21T01:16:05.430Z,1019.27
2019-01-21T01:17:05.414Z,1019.24
2019-01-21T01:18:05.419Z,1019.24
2019-01-21T01:19:05.397Z,1019.34
2019-01-21T01:20:05.392Z,1019.30
2019-01-21T01:21:05.373Z,1019.28
2019-01-21T01:22:05.363Z,1019.33
2019-01-21T01:23:05.369Z,1019.29
2019-01-21T01:24:05.342Z,1019.25
2019-01-21T01:25:05.333Z,1019.33
2019-01-21T01:26:05.321Z,1019.30
2019-01-21T01:27:05.312Z,1019.32
2019-01-21T01:28:05.333Z,1019.33
2019-01-21T01:29:05.294Z,1019.35
2019-01-21T01:30:05.303Z,1019.34
2019-01-21T01:31:05.274Z,1019.34
2019-01-21T01:32:05.263Z,1019.40
2019-01-21T01:33:05.249Z,1019.37
2019-01-21T01:34:05.277Z,1019.35
2019-01-21T01:35:05.223Z,1019.30
2019-01-21T01:36:05.221Z,1019.28
2019-01-21T01:37:05.199Z,1019.26
2019-01-21T01:38:05.188Z,1019.35
2019-01-21T01:39:05.200Z,1019.27
2019-01-21T01:40:05.170Z,1019.34
2019-01-21T01:41:05.166Z,1019.33
2019-01-21T01:42:05.150Z,1019.32
2019-01-21T01:43:05.139Z,1019.32
2019-01-21T01:44:05.141Z,1019.30
2019-01-21T01:45:05.178Z,1019.25
2019-01-21T01:46:05.107Z,1019.32
2019-01-21T01:47:05.093Z,1019.33
2019-01-21T01:48:05.101Z,1019.28
2019-01-21T01:49:05.089Z,1019.30
2019-01-21T01:50:05.065Z,1019.32
2019-01-21T01:51:05.062Z,1019.33
2019-01-21T01:52:05.058Z,1019.28
2019-01-21T01:53:05.032Z,1019.31
2019-01-21T01:54:05.061Z,1019.28
2019-01-21T01:55:05.012Z,1019.33
2019-01-21T01:56:05.004Z,1019.36
2019-01-21T01:57:04.989Z,1019.30
2019-01-21T01:58:04.984Z,1019.32
2019-01-21T01:59:04.996Z,1019.28
2019-01-21T02:00:04.963Z,1019.35
2019-01-21T02:01:04.949Z,1019.32
2019-01-21T02:02:04.938Z,1019.34
2019-01-21T02:03:04.931Z,1019.33
2019-01-21T02:04:04.923Z,1019.27
2019-01-21T02:05:04.922Z,1019.29
2019-01-21T02:06:04.899Z,1019.25
2019-01-21T02:07:04.882Z,1019.30
2019-01-21T02:08:04.874Z,1019.33
2019-01-21T02:09:04.863Z,1019.34
2019-01-21T02:10:04.876Z,1019.33
2019-01-21T02:11:04.847Z,1019.36
2019-01-21T02:12:04.833Z,1019.38
2019-01-21T02:13:04.821Z,1019.35
2019-01-21T02:14:04.813Z,1019.36
2019-01-21T02:15:04.820Z,1019.34
2019-01-21T02:16:04.792Z,1019.39
2019-01-21T02:17:04.779Z,1019.38
2019-01-21T02:18:04.770Z,1019.36
2019-01-21T02:19:04.757Z,1019.42
2019-01-21T02:20:04.771Z,1019.36
2019-01-21T02:21:04.743Z,1019.40
2019-01-21T02:22:04.732Z,1019.37
2019-01-21T02:23:04.718Z,1019.33
2019-01-21T02:24:04.706Z,1019.36
2019-01-21T02:25:04.695Z,1019.34
2019-01-21T02:26:04.701Z,1019.37
2019-01-21T02:27:04.674Z,1019.32
2019-01-21T02:28:04.666Z,1019.28
2019-01-21T02:29:04.651Z,1019.25
2019-01-21T02:30:04.645Z,1019.32
2019-01-21T02:31:04.650Z,1019.35
2019-01-21T02:32:04.620Z,1019.29
2019-01-21T02:33:04.611Z,1019.29
2019-01-21T02:34:04.597Z,1019.27
2019-01-21T02:35:04.595Z,1019.32
2019-01-21T02:36:04.588Z,1019.29
2019-01-21T02:37:04.568Z,1019.31
2019-01-21T02:38:04.559Z,1019.27
2019-01-21T02:39:04.549Z,1019.31
2019-01-21T02:40:04.544Z,1019.26
2019-01-21T02:41:04.539Z,1019.24
2019-01-21T02:42:04.514Z,1019.23
2019-01-21T02:43:04.508Z,1019.25
2019-01-21T02:44:04.496Z,1019.26
2019-01-21T02:45:04.480Z,1019.22
2019-01-21T02:46:04.479Z,1019.20
2019-01-21T02:47:04.458Z,1019.23
2019-01-21T02:48:04.451Z,1019.24
2019-01-21T02:49:04.442Z,1019.17
2019-01-21T02:50:04.431Z,1019.23
2019-01-21T02:51:04.442Z,1019.28
2019-01-21T02:52:04.430Z,1019.20
2019-01-21T02:53:04.398Z,1019.26
2019-01-21T02:54:04.387Z,1019.23
2019-01-21T02:55:04.391Z,1019.20
2019-01-21T02:56:04.398Z,1019.18
2019-01-21T02:57:04.357Z,1019.20
2019-01-21T02:58:04.341Z,1019.23
2019-01-21T02:59:04.333Z,1019.17
2019-01-21T03:00:04.327Z,1019.17
2019-01-21T03:01:04.311Z,1019.15
2019-01-21T03:02:04.915Z,1019.11
2019-01-21T03:03:04.313Z,1019.17
2019-01-21T03:04:04.279Z,1019.16
2019-01-21T03:05:04.271Z,1019.11
2019-01-21T03:06:04.261Z,1019.11
2019-01-21T03:07:04.265Z,1019.16
2019-01-21T03:08:04.235Z,1019.11
2019-01-21T03:09:04.224Z,1019.13
2019-01-21T03:10:04.223Z,1019.11
2019-01-21T03:11:04.208Z,1019.09
2019-01-21T03:12:04.210Z,1019.08
2019-01-21T03:13:04.192Z,1019.15
2019-01-21T03:14:04.174Z,1019.14
2019-01-21T03:15:04.169Z,1019.14
2019-01-21T03:16:04.153Z,1019.15
2019-01-21T03:17:04.150Z,1019.07
2019-01-21T03:18:08.104Z,1019.15
2019-01-21T03:19:04.119Z,1019.12
2019-01-21T03:20:04.112Z,1019.12
2019-01-21T03:21:04.102Z,1019.18
2019-01-21T03:22:04.102Z,1019.14
2019-01-21T03:23:04.076Z,1019.16
2019-01-21T03:24:04.068Z,1019.16
2019-01-21T03:25:04.056Z,1019.19
2019-01-21T03:26:04.044Z,1019.19
2019-01-21T03:27:04.050Z,1019.14
2019-01-21T03:28:04.023Z,1019.19
2019-01-21T03:29:04.011Z,1019.20
2019-01-21T03:30:04.006Z,1019.18
2019-01-21T03:31:04.001Z,1019.23
2019-01-21T03:32:04.002Z,1019.18
2019-01-21T03:33:03.982Z,1019.22
2019-01-21T03:34:03.962Z,1019.23
2019-01-21T03:35:03.948Z,1019.18
2019-01-21T03:36:03.942Z,1019.22
2019-01-21T03:37:03.959Z,1019.18
2019-01-21T03:38:03.915Z,1019.16
2019-01-21T03:39:03.906Z,1019.19
2019-01-21T03:40:03.897Z,1019.16
2019-01-21T03:41:03.893Z,1019.15
2019-01-21T03:42:03.892Z,1019.18
2019-01-21T03:43:03.862Z,1019.16
2019-01-21T03:44:03.850Z,1019.20
2019-01-21T03:45:03.843Z,1019.17
2019-01-21T03:46:03.833Z,1019.18
2019-01-21T03:47:03.836Z,1019.17
2019-01-21T03:48:03.809Z,1019.21
2019-01-21T03:49:03.806Z,1019.19
2019-01-21T03:50:03.790Z,1019.14
2019-01-21T03:51:03.785Z,1019.14
2019-01-21T03:52:03.789Z,1019.15
2019-01-21T03:53:03.758Z,1019.11
2019-01-21T03:54:03.746Z,1019.14
2019-01-21T03:55:03.734Z,1019.15
2019-01-21T03:56:03.726Z,1019.15
2019-01-21T03:57:03.715Z,1019.10
2019-01-21T03:58:05.582Z,1019.14
2019-01-21T03:59:03.692Z,1019.11
2019-01-21T04:00:03.689Z,1019.13
2019-01-21T04:01:03.691Z,1019.06
2019-01-21T04:02:03.664Z,1019.07
2019-01-21T04:03:03.660Z,1019.10
2019-01-21T04:04:03.637Z,1019.07
2019-01-21T04:05:03.626Z,1019.12
2019-01-21T04:06:03.622Z,1019.13
2019-01-21T04:07:03.605Z,1019.12
2019-01-21T04:08:03.613Z,1019.10
2019-01-21T04:09:03.590Z,1019.11
2019-01-21T04:10:03.574Z,1019.07
2019-01-21T04:11:03.569Z,1019.04
2019-01-21T04:12:03.568Z,1019.07
2019-01-21T04:13:03.567Z,1018.99
2019-01-21T04:14:03.532Z,1018.98
2019-01-21T04:15:03.522Z,1018.96
2019-01-21T04:16:03.507Z,1018.97
2019-01-21T04:17:03.498Z,1018.93
2019-01-21T04:18:03.512Z,1018.93
2019-01-21T04:19:03.483Z,1018.93
2019-01-21T04:20:03.470Z,1018.91
2019-01-21T04:21:03.462Z,1018.92
2019-01-21T04:22:03.450Z,1018.91
2019-01-21T04:23:03.451Z,1018.94
2019-01-21T04:24:03.430Z,1018.94
2019-01-21T04:25:03.418Z,1018.92
2019-01-21T04:26:03.404Z,1018.95
2019-01-21T04:27:03.397Z,1018.91
2019-01-21T04:28:03.402Z,1018.91
2019-01-21T04:29:03.374Z,1018.90
2019-01-21T04:30:03.371Z,1018.92
2019-01-21T04:31:03.353Z,1018.95
2019-01-21T04:32:03.345Z,1018.88
2019-01-21T04:33:03.343Z,1018.90
2019-01-21T04:34:03.319Z,1018.90
2019-01-21T04:35:03.313Z,1018.89
2019-01-21T04:36:03.301Z,1018.80
2019-01-21T04:37:03.290Z,1018.80
2019-01-21T04:38:03.317Z,1018.86
2019-01-21T04:39:03.276Z,1018.83
2019-01-21T04:40:03.256Z,1018.81
2019-01-21T04:41:03.244Z,1018.80
2019-01-21T04:42:03.239Z,1018.79
2019-01-21T04:43:03.227Z,1018.83
2019-01-21T04:44:03.232Z,1018.82
2019-01-21T04:45:03.213Z,1018.85
2019-01-21T04:46:03.191Z,1018.78
2019-01-21T04:47:03.181Z,1018.79
2019-01-21T04:48:03.182Z,1018.78
2019-01-21T04:49:03.176Z,1018.78
2019-01-21T04:50:03.152Z,1018.78
2019-01-21T04:51:03.146Z,1018.81
2019-01-21T04:52:03.130Z,1018.82
2019-01-21T04:53:03.127Z,1018.83
2019-01-21T04:54:03.120Z,1018.79
2019-01-21T04:55:03.104Z,1018.77
2019-01-21T04:56:03.085Z,1018.76
2019-01-21T04:57:03.095Z,1018.79
2019-01-21T04:58:03.066Z,1018.76
2019-01-21T04:59:03.066Z,1018.73
2019-01-21T05:00:03.048Z,1018.77
2019-01-21T05:01:03.034Z,1018.71
2019-01-21T05:02:03.025Z,1018.73
2019-01-21T05:03:03.013Z,1018.74
2019-01-21T05:04:03.018Z,1018.76
2019-01-21T05:05:02.992Z,1018.75
2019-01-21T05:06:02.982Z,1018.70
2019-01-21T05:07:02.971Z,1018.71
2019-01-21T05:08:02.956Z,1018.68
2019-01-21T05:09:02.962Z,1018.74
2019-01-21T05:10:02.944Z,1018.70
2019-01-21T05:11:02.933Z,1018.72
2019-01-21T05:12:02.942Z,1018.71
2019-01-21T05:13:02.943Z,1018.75
2019-01-21T05:14:02.910Z,1018.73
2019-01-21T05:15:02.885Z,1018.75
2019-01-21T05:16:02.878Z,1018.76
2019-01-21T05:17:02.870Z,1018.73
2019-01-21T05:18:02.868Z,1018.75
2019-01-21T05:19:02.855Z,1018.81
2019-01-21T05:20:02.832Z,1018.81
2019-01-21T05:21:02.823Z,1018.76
2019-01-21T05:22:02.816Z,1018.74
2019-01-21T05:23:02.802Z,1018.74
2019-01-21T05:24:02.813Z,1018.73
2019-01-21T05:25:02.787Z,1018.68
2019-01-21T05:26:02.777Z,1018.73
2019-01-21T05:27:02.758Z,1018.78
2019-01-21T05:28:02.765Z,1018.76
2019-01-21T05:29:02.827Z,1018.76
2019-01-21T05:30:02.723Z,1018.81
2019-01-21T05:31:02.723Z,1018.76
2019-01-21T05:32:02.705Z,1018.75
2019-01-21T05:33:02.700Z,1018.74
2019-01-21T05:34:02.701Z,1018.74
2019-01-21T05:35:02.672Z,1018.69
2019-01-21T05:36:02.670Z,1018.66
2019-01-21T05:37:02.662Z,1018.71
2019-01-21T05:38:02.644Z,1018.69
2019-01-21T05:39:02.672Z,1018.71
2019-01-21T05:40:02.619Z,1018.66
2019-01-21T05:41:02.612Z,1018.64
2019-01-21T05:42:02.603Z,1018.69
2019-01-21T05:43:02.589Z,1018.65
2019-01-21T05:44:02.588Z,1018.62
2019-01-21T05:45:02.578Z,1018.64
2019-01-21T05:46:02.576Z,1018.68
2019-01-21T05:47:02.562Z,1018.70
2019-01-21T05:48:02.532Z,1018.68
2019-01-21T05:49:02.529Z,1018.71
2019-01-21T05:50:03.195Z,1018.71
2019-01-21T05:51:02.501Z,1018.70
2019-01-21T05:52:02.491Z,1018.73
2019-01-21T05:53:02.483Z,1018.71
2019-01-21T05:54:02.470Z,1018.72
2019-01-21T05:55:02.525Z,1018.73
2019-01-21T05:56:02.457Z,1018.74
2019-01-21T05:57:02.452Z,1018.74
2019-01-21T05:58:02.433Z,1018.73
2019-01-21T05:59:02.423Z,1018.76
2019-01-21T06:00:02.419Z,1018.75
2019-01-21T06:01:02.396Z,1018.72
2019-01-21T06:02:02.390Z,1018.74
2019-01-21T06:03:02.375Z,1018.71
2019-01-21T06:04:02.363Z,1018.72
2019-01-21T06:05:02.377Z,1018.73
2019-01-21T06:06:02.345Z,1018.74
2019-01-21T06:07:02.333Z,1018.72
2019-01-21T06:08:02.323Z,1018.67
2019-01-21T06:09:02.313Z,1018.76
2019-01-21T06:10:02.297Z,1018.70
2019-01-21T06:11:02.304Z,1018.72
2019-01-21T06:12:02.284Z,1018.72
2019-01-21T06:13:02.271Z,1018.74
2019-01-21T06:14:02.258Z,1018.72
2019-01-21T06:15:02.252Z,1018.75
2019-01-21T06:16:02.254Z,1018.76
2019-01-21T06:17:02.229Z,1018.76
2019-01-21T06:18:02.276Z,1018.80
2019-01-21T06:19:02.205Z,1018.78
2019-01-21T06:20:02.195Z,1018.73
2019-01-21T06:21:02.220Z,1018.76
2019-01-21T06:22:02.178Z,1018.74
2019-01-21T06:23:02.161Z,1018.72
2019-01-21T06:24:02.155Z,1018.74
2019-01-21T06:25:02.145Z,1018.75
2019-01-21T06:26:02.159Z,1018.77
2019-01-21T06:27:02.178Z,1018.74
2019-01-21T06:28:02.124Z,1018.82
2019-01-21T06:29:02.105Z,1018.83
2019-01-21T06:30:02.093Z,1018.81
2019-01-21T06:31:02.104Z,1018.80
2019-01-21T06:32:02.069Z,1018.78
2019-01-21T06:33:02.055Z,1018.80
2019-01-21T06:34:02.056Z,1018.80
2019-01-21T06:35:02.035Z,1018.80
2019-01-21T06:36:02.028Z,1018.78
2019-01-21T06:37:02.043Z,1018.83
2019-01-21T06:38:02.005Z,1018.84
2019-01-21T06:39:01.992Z,1018.84
2019-01-21T06:40:01.994Z,1018.86
2019-01-21T06:41:01.968Z,1018.86
2019-01-21T06:42:01.987Z,1018.87
2019-01-21T06:43:01.953Z,1018.87
2019-01-21T06:44:01.938Z,1018.83
2019-01-21T06:45:01.928Z,1018.87
2019-01-21T06:46:01.921Z,1018.86
2019-01-21T06:47:01.919Z,1018.88
2019-01-21T06:48:01.894Z,1018.88
2019-01-21T06:49:04.849Z,1018.85
2019-01-21T06:50:01.873Z,1018.81
2019-01-21T06:51:01.861Z,1018.84
2019-01-21T06:52:01.862Z,1018.84
2019-01-21T06:53:01.843Z,1018.84
2019-01-21T06:54:01.831Z,1018.86
2019-01-21T06:55:01.817Z,1018.84
2019-01-21T06:56:01.808Z,1018.86
2019-01-21T06:57:01.813Z,1018.88
2019-01-21T06:58:01.783Z,1018.87
2019-01-21T06:59:01.782Z,1018.88
2019-01-21T07:00:01.766Z,1018.90
2019-01-21T07:01:01.754Z,1018.87
2019-01-21T07:02:01.755Z,1018.95
2019-01-21T07:03:01.730Z,1018.95
2019-01-21T07:04:01.723Z,1018.92
2019-01-21T07:05:01.707Z,1018.94
2019-01-21T07:06:01.713Z,1018.95
2019-01-21T07:07:01.711Z,1018.94
2019-01-21T07:08:01.679Z,1018.90
2019-01-21T07:09:01.663Z,1018.97
2019-01-21T07:10:01.674Z,1018.96
2019-01-21T07:11:01.651Z,1018.99
2019-01-21T07:12:01.674Z,1018.92
2019-01-21T07:13:01.621Z,1018.87
2019-01-21T07:14:01.611Z,1018.85
2019-01-21T07:15:01.602Z,1018.83
2019-01-21T07:16:01.589Z,1018.86
2019-01-21T07:17:01.589Z,1018.90
2019-01-21T07:18:01.585Z,1018.92
2019-01-21T07:19:01.570Z,1018.87
2019-01-21T07:20:01.546Z,1018.91
2019-01-21T07:21:01.537Z,1018.94
2019-01-21T07:22:01.525Z,1018.95
2019-01-21T07:23:01.535Z,1018.99
2019-01-21T07:24:01.509Z,1018.95
2019-01-21T07:25:01.504Z,1018.93
2019-01-21T07:26:01.485Z,1018.97
2019-01-21T07:27:01.474Z,1018.97
2019-01-21T07:28:01.492Z,1018.95
2019-01-21T07:29:01.452Z,1018.94
2019-01-21T07:30:01.454Z,1018.93
2019-01-21T07:31:01.430Z,1018.95
2019-01-21T07:32:01.426Z,1018.99
2019-01-21T07:33:01.417Z,1018.93
2019-01-21T07:34:01.424Z,1018.94
2019-01-21T07:35:01.391Z,1018.91
2019-01-21T07:36:01.400Z,1018.92
2019-01-21T07:37:01.374Z,1018.94
2019-01-21T07:38:01.364Z,1018.94
2019-01-21T07:39:01.366Z,1018.93
2019-01-21T07:40:01.346Z,1018.89
2019-01-21T07:41:01.337Z,1018.89
2019-01-21T07:42:01.318Z,1018.92
2019-01-21T07:43:01.310Z,1018.83
2019-01-21T07:44:01.320Z,1018.88
2019-01-21T07:45:01.289Z,1018.89
2019-01-21T07:46:01.280Z,1018.95
2019-01-21T07:47:01.283Z,1018.95
2019-01-21T07:48:01.258Z,1018.94
2019-01-21T07:49:01.253Z,1018.94
2019-01-21T07:50:01.247Z,1018.96
2019-01-21T07:51:01.248Z,1018.92
2019-01-21T07:52:01.216Z,1018.95
2019-01-21T07:53:01.207Z,1018.93
2019-01-21T07:54:01.196Z,1018.88
2019-01-21T07:55:01.195Z,1018.89
2019-01-21T07:56:01.176Z,1018.93
2019-01-21T07:57:01.159Z,1018.90
2019-01-21T07:58:01.154Z,1018.91
2019-01-21T07:59:01.142Z,1018.92
2019-01-21T08:00:01.152Z,1018.93
2019-01-21T08:01:01.122Z,1018.98
2019-01-21T08:02:01.111Z,1019.01
2019-01-21T08:03:01.104Z,1018.97
2019-01-21T08:04:01.103Z,1018.98
2019-01-21T08:05:01.114Z,1018.96
2019-01-21T08:06:01.070Z,1018.91
2019-01-21T08:07:01.058Z,1018.98
2019-01-21T08:08:01.056Z,1018.96
2019-01-21T08:09:01.039Z,1018.96
2019-01-21T08:10:01.022Z,1018.92
2019-01-21T08:11:01.029Z,1018.99
2019-01-21T08:12:01.002Z,1019.03
2019-01-21T08:13:01.002Z,1018.98
2019-01-21T08:14:00.987Z,1018.96
2019-01-21T08:15:00.971Z,1018.98
2019-01-21T08:16:00.974Z,1018.99
2019-01-21T08:17:00.956Z,1018.98
2019-01-21T08:18:00.937Z,1019.03
2019-01-21T08:19:00.929Z,1019.03
2019-01-21T08:20:00.915Z,1019.03
2019-01-21T08:21:00.921Z,1019.02
2019-01-21T08:22:00.899Z,1019.03
2019-01-21T08:23:01.980Z,1019.06
2019-01-21T08:24:00.872Z,1018.98
2019-01-21T08:25:00.866Z,1019.04
2019-01-21T08:26:00.868Z,1019.00
2019-01-21T08:27:00.839Z,1018.96
2019-01-21T08:28:00.851Z,1018.92
2019-01-21T08:29:00.823Z,1018.97
2019-01-21T08:30:00.824Z,1018.97
2019-01-21T08:31:00.819Z,1018.93
2019-01-21T08:32:00.788Z,1018.91
2019-01-21T08:33:00.777Z,1018.98
2019-01-21T08:34:00.759Z,1018.97
2019-01-21T08:35:00.751Z,1019.01
2019-01-21T08:36:00.742Z,1018.96
2019-01-21T08:37:00.789Z,1019.04
2019-01-21T08:38:00.726Z,1019.00
2019-01-21T08:39:00.724Z,1018.99
2019-01-21T08:40:00.700Z,1019.01
2019-01-21T08:41:00.689Z,1018.97
2019-01-21T08:42:00.694Z,1018.94
2019-01-21T08:43:00.683Z,1018.99
2019-01-21T08:44:00.669Z,1019.05
2019-01-21T08:45:00.652Z,1019.02
2019-01-21T08:46:00.633Z,1019.02
2019-01-21T08:47:00.640Z,1019.03
2019-01-21T08:48:00.612Z,1019.03
2019-01-21T08:49:00.597Z,1019.03
2019-01-21T08:50:00.596Z,1019.05
2019-01-21T08:51:00.576Z,1019.04
2019-01-21T08:52:00.583Z,1019.07
2019-01-21T08:53:00.562Z,1019.06
2019-01-21T08:54:00.547Z,1019.08
2019-01-21T08:55:00.534Z,1019.10
2019-01-21T08:56:00.524Z,1019.13
2019-01-21T08:57:00.549Z,1019.12
2019-01-21T08:58:00.620Z,1019.11
2019-01-21T08:59:00.496Z,1019.13
2019-01-21T09:00:00.483Z,1019.09
2019-01-21T09:01:00.489Z,1019.15
2019-01-21T09:02:00.462Z,1019.08
2019-01-21T09:03:00.785Z,1019.10
2019-01-21T09:04:00.553Z,1019.09
2019-01-21T09:05:00.481Z,1019.10
2019-01-21T09:06:00.417Z,1019.11
2019-01-21T09:07:00.773Z,1019.14
2019-01-21T09:08:00.411Z,1019.10
2019-01-21T09:09:00.381Z,1019.13
2019-01-21T09:10:00.373Z,1019.18
2019-01-21T09:11:00.365Z,1019.18
2019-01-21T09:12:00.615Z,1019.14
2019-01-21T09:13:00.363Z,1019.16
2019-01-21T09:14:00.328Z,1019.13
2019-01-21T09:15:00.315Z,1019.18
2019-01-21T09:16:00.355Z,1019.13
2019-01-21T09:17:00.299Z,1019.09
2019-01-21T09:18:00.314Z,1019.11
2019-01-21T09:19:00.568Z,1019.14
2019-01-21T09:20:00.280Z,1019.16
2019-01-21T09:21:00.252Z,1019.22
2019-01-21T09:22:00.257Z,1019.16
2019-01-21T09:23:00.238Z,1019.20
2019-01-21T09:24:00.240Z,1019.19
2019-01-21T09:25:00.229Z,1019.16
2019-01-21T09:26:00.207Z,1019.17
2019-01-21T09:27:00.195Z,1019.23
2019-01-21T09:28:00.182Z,1019.23
2019-01-21T09:29:00.186Z,1019.20
2019-01-21T09:30:00.232Z,1019.21
2019-01-21T09:31:00.145Z,1019.18
2019-01-21T09:32:00.136Z,1019.21
2019-01-21T09:33:00.175Z,1019.22
2019-01-21T09:34:00.323Z,1019.24
2019-01-21T09:35:00.239Z,1019.27
2019-01-21T09:36:00.111Z,1019.27
2019-01-21T09:37:00.078Z,1019.24
2019-01-21T09:38:00.130Z,1019.24
2019-01-21T09:39:00.063Z,1019.19
2019-01-21T09:40:00.105Z,1019.14
2019-01-21T09:41:00.037Z,1019.16
2019-01-21T09:42:00.029Z,1019.21
2019-01-21T09:43:00.017Z,1019.22
2019-01-21T09:44:00.740Z,1019.21
2019-01-21T09:45:00.015Z,1019.20
2019-01-21T09:45:59.986Z,1019.22
2019-01-21T09:46:59.982Z,1019.21
2019-01-21T09:47:59.966Z,1019.20
2019-01-21T09:48:59.953Z,1019.18
2019-01-21T09:49:59.963Z,1019.14
2019-01-21T09:50:59.931Z,1019.15
2019-01-21T09:51:59.919Z,1019.11
2019-01-21T09:52:59.907Z,1019.14
2019-01-21T09:53:59.901Z,1019.15
2019-01-21T09:54:59.900Z,1019.14
2019-01-21T09:55:59.874Z,1019.21
2019-01-21T09:56:59.878Z,1019.18
2019-01-21T09:57:59.854Z,1019.22
2019-01-21T09:58:59.848Z,1019.20
2019-01-21T09:59:59.844Z,1019.17
2019-01-21T10:00:59.820Z,1019.18
2019-01-21T10:01:59.817Z,1019.16
2019-01-21T10:02:59.814Z,1019.12
2019-01-21T10:03:59.795Z,1019.07
2019-01-21T10:04:59.794Z,1019.09
2019-01-21T10:05:59.770Z,1019.06
2019-01-21T10:06:59.761Z,1019.09
2019-01-21T10:07:59.758Z,1019.08
2019-01-21T10:08:59.739Z,1019.04
2019-01-21T10:09:59.752Z,1019.04
2019-01-21T10:11:03.348Z,1019.00
2019-01-21T10:11:59.713Z,1018.94
2019-01-21T10:12:59.699Z,1018.89
2019-01-21T10:13:59.689Z,1018.89
2019-01-21T10:14:59.677Z,1018.89
2019-01-21T10:15:59.679Z,1018.87
2019-01-21T10:16:59.666Z,1018.87
2019-01-21T10:17:59.808Z,1018.84
2019-01-21T10:18:59.636Z,1018.79
2019-01-21T10:19:59.624Z,1018.81
2019-01-21T10:20:59.629Z,1018.80
2019-01-21T10:21:59.607Z,1018.75
2019-01-21T10:22:59.594Z,1018.73
2019-01-21T10:23:59.614Z,1018.72
2019-01-21T10:24:59.586Z,1018.69
2019-01-21T10:25:59.583Z,1018.76
2019-01-21T10:26:59.567Z,1018.72
2019-01-21T10:27:59.538Z,1018.75
2019-01-21T10:28:59.534Z,1018.76
2019-01-21T10:29:59.517Z,1018.71
2019-01-21T10:30:59.524Z,1018.71
2019-01-21T10:31:59.594Z,1018.68
2019-01-21T10:32:59.486Z,1018.65
2019-01-21T10:33:59.476Z,1018.60
2019-01-21T10:34:59.501Z,1018.59
2019-01-21T10:35:59.451Z,1018.56
2019-01-21T10:36:59.453Z,1018.59
2019-01-21T10:37:59.437Z,1018.62
2019-01-21T10:38:59.422Z,1018.62
2019-01-21T10:39:59.420Z,1018.64
2019-01-21T10:40:59.402Z,1018.57
2019-01-21T10:41:59.411Z,1018.55
2019-01-21T10:42:59.376Z,1018.52
2019-01-21T10:43:59.366Z,1018.47
2019-01-21T10:44:59.358Z,1018.43
2019-01-21T10:45:59.353Z,1018.43
2019-01-21T10:46:59.355Z,1018.45
2019-01-21T10:47:59.323Z,1018.42
2019-01-21T10:48:59.325Z,1018.42
2019-01-21T10:49:59.321Z,1018.44
2019-01-21T10:50:59.294Z,1018.42
2019-01-21T10:51:59.297Z,1018.40
2019-01-21T10:52:59.268Z,1018.34
2019-01-21T10:53:59.266Z,1018.30
2019-01-21T10:54:59.258Z,1018.29
2019-01-21T10:55:59.246Z,1018.26
2019-01-21T10:56:59.249Z,1018.25
2019-01-21T10:57:59.218Z,1018.23
2019-01-21T10:58:59.228Z,1018.27
2019-01-21T10:59:59.198Z,1018.22
2019-01-21T11:00:59.183Z,1018.23
2019-01-21T11:01:59.203Z,1018.18
2019-01-21T11:02:59.168Z,1018.16
2019-01-21T11:03:59.154Z,1018.15
2019-01-21T11:04:59.141Z,1018.19
2019-01-21T11:05:59.133Z,1018.13
2019-01-21T11:06:59.126Z,1018.14
2019-01-21T11:07:59.132Z,1018.12
2019-01-21T11:08:59.107Z,1018.13
2019-01-21T11:09:59.097Z,1018.12
2019-01-21T11:10:59.083Z,1018.12
2019-01-21T11:11:59.076Z,1018.11
2019-01-21T11:12:59.074Z,1018.11
2019-01-21T11:13:59.054Z,1018.08
2019-01-21T11:14:59.053Z,1018.10
2019-01-21T11:15:59.029Z,1018.12
2019-01-21T11:16:59.026Z,1018.09
2019-01-21T11:17:59.024Z,1018.07
2019-01-21T11:18:59.005Z,1018.07
2019-01-21T11:20:03.966Z,1018.01
2019-01-21T11:20:59.984Z,1017.99
2019-01-21T11:21:58.983Z,1017.93
2019-01-21T11:22:58.967Z,1017.88
2019-01-21T11:23:58.955Z,1017.87
2019-01-21T11:24:58.937Z,1017.89
2019-01-21T11:25:58.926Z,1017.90
2019-01-21T11:26:58.913Z,1017.87
2019-01-21T11:27:58.942Z,1017.86
2019-01-21T11:28:58.888Z,1017.85
2019-01-21T11:29:58.888Z,1017.85
2019-01-21T11:30:58.871Z,1017.82
2019-01-21T11:31:58.859Z,1017.89
2019-01-21T11:32:59.216Z,1017.89
2019-01-21T11:33:58.838Z,1017.80
2019-01-21T11:34:58.830Z,1017.88
2019-01-21T11:35:58.826Z,1017.85
2019-01-21T11:36:58.808Z,1017.84
2019-01-21T11:37:58.808Z,1017.82
2019-01-21T11:38:58.786Z,1017.79
2019-01-21T11:39:58.774Z,1017.81
2019-01-21T11:40:58.765Z,1017.85
2019-01-21T11:41:58.751Z,1017.85
2019-01-21T11:42:58.759Z,1017.85
2019-01-21T11:43:58.744Z,1017.85
2019-01-21T11:44:58.725Z,1017.88
2019-01-21T11:45:58.712Z,1017.92
2019-01-21T11:46:58.702Z,1017.91
2019-01-21T11:47:58.711Z,1017.92
2019-01-21T11:48:58.683Z,1017.91
2019-01-21T11:49:58.671Z,1017.94
2019-01-21T11:50:58.658Z,1017.87
2019-01-21T11:51:58.656Z,1017.85
2019-01-21T11:52:58.641Z,1017.79
2019-01-21T11:53:58.646Z,1017.78
2019-01-21T11:54:58.623Z,1017.76
2019-01-21T11:55:58.612Z,1017.74
2019-01-21T11:56:58.600Z,1017.75
2019-01-21T11:57:58.587Z,1017.76
2019-01-21T11:58:58.598Z,1017.73
2019-01-21T11:59:58.566Z,1017.73
2019-01-21T12:00:58.559Z,1017.68
2019-01-21T12:01:58.542Z,1017.70
2019-01-21T12:02:58.536Z,1017.67
2019-01-21T12:03:58.533Z,1017.59
2019-01-21T12:04:58.514Z,1017.59